sensor_id;sensor_type;location;lat;lon;timestamp;pressure;altitude;pressure_sealevel;temperature;humidity
56721;BME280;53183;47.412;18.884;2023-05-01T00:00:05;99513.47;;;10.62;78.13
56721;BME280;53183;47.412;18.884;2023-05-01T00:02:32;99502.16;;;10.60;77.73
56721;BME280;53183;47.412;18.884;2023-05-01T00:05:01;99499.56;;;10.59;77.79
56721;BME280;53183;47.412;18.884;2023-05-01T00:07:29;99497.94;;;10.40;78.55
56721;BME280;53183;47.412;18.884;2023-05-01T00:09:57;99502.34;;;10.40;78.41
56721;BME280;53183;47.412;18.884;2023-05-01T00:12:24;99501.06;;;10.31;78.76
56721;BME280;53183;47.412;18.884;2023-05-01T00:14:55;99507.56;;;10.24;79.33
56721;BME280;53183;47.412;18.884;2023-05-01T00:17:23;99509.97;;;10.28;78.63
56721;BME280;53183;47.412;18.884;2023-05-01T00:19:53;99508.47;;;10.23;78.83
56721;BME280;53183;47.412;18.884;2023-05-01T00:22:21;99503.50;;;10.17;78.92
56721;BME280;53183;47.412;18.884;2023-05-01T00:24:48;99504.75;;;10.09;79.62
56721;BME280;53183;47.412;18.884;2023-05-01T00:27:16;99505.53;;;10.12;78.86
56721;BME280;53183;47.412;18.884;2023-05-01T00:29:43;99501.97;;;10.13;78.47
56721;BME280;53183;47.412;18.884;2023-05-01T00:32:10;99495.16;;;10.08;78.56
56721;BME280;53183;47.412;18.884;2023-05-01T00:34:37;99488.91;;;10.09;78.30
56721;BME280;53183;47.412;18.884;2023-05-01T00:37:04;99492.34;;;10.12;78.07
56721;BME280;53183;47.412;18.884;2023-05-01T00:39:32;99493.97;;;10.14;77.81
56721;BME280;53183;47.412;18.884;2023-05-01T00:41:59;99498.03;;;10.04;78.30
56721;BME280;53183;47.412;18.884;2023-05-01T00:44:26;99500.59;;;10.05;78.60
56721;BME280;53183;47.412;18.884;2023-05-01T00:46:54;99499.72;;;10.05;78.02
56721;BME280;53183;47.412;18.884;2023-05-01T00:49:22;99499.03;;;10.01;78.15
56721;BME280;53183;47.412;18.884;2023-05-01T00:51:50;99506.47;;;9.93;78.70
56721;BME280;53183;47.412;18.884;2023-05-01T00:54:19;99504.16;;;9.87;78.84
56721;BME280;53183;47.412;18.884;2023-05-01T00:56:47;99506.78;;;9.87;78.91
56721;BME280;53183;47.412;18.884;2023-05-01T00:59:15;99507.66;;;9.88;78.75
56721;BME280;53183;47.412;18.884;2023-05-01T01:01:43;99507.28;;;9.78;79.39
56721;BME280;53183;47.412;18.884;2023-05-01T01:04:11;99505.63;;;9.75;79.61
56721;BME280;53183;47.412;18.884;2023-05-01T01:06:57;99504.53;;;9.79;79.82
56721;BME280;53183;47.412;18.884;2023-05-01T01:12:25;99507.09;;;9.63;80.96
56721;BME280;53183;47.412;18.884;2023-05-01T01:20:20;99503.53;;;9.65;80.94
56721;BME280;53183;47.412;18.884;2023-05-01T01:23:00;99493.13;;;9.61;80.95
56721;BME280;53183;47.412;18.884;2023-05-01T01:36:19;99484.53;;;9.58;80.88
56721;BME280;53183;47.412;18.884;2023-05-01T01:38:58;99491.41;;;9.60;80.35
56721;BME280;53183;47.412;18.884;2023-05-01T01:41:30;99482.28;;;9.68;79.50
56721;BME280;53183;47.412;18.884;2023-05-01T01:44:11;99486.53;;;9.70;79.30
56721;BME280;53183;47.412;18.884;2023-05-01T01:46:43;99486.38;;;9.73;78.59
56721;BME280;53183;47.412;18.884;2023-05-01T01:49:16;99488.16;;;9.90;76.72
56721;BME280;53183;47.412;18.884;2023-05-01T01:51:49;99485.91;;;10.00;75.78
56721;BME280;53183;47.412;18.884;2023-05-01T01:54:22;99489.56;;;10.15;74.42
56721;BME280;53183;47.412;18.884;2023-05-01T01:56:53;99484.59;;;10.26;73.46
56721;BME280;53183;47.412;18.884;2023-05-01T01:59:22;99493.28;;;10.28;73.13
56721;BME280;53183;47.412;18.884;2023-05-01T02:01:52;99483.56;;;10.28;73.16
56721;BME280;53183;47.412;18.884;2023-05-01T02:04:24;99493.81;;;10.35;73.06
56721;BME280;53183;47.412;18.884;2023-05-01T02:06:57;99485.84;;;10.52;72.59
56721;BME280;53183;47.412;18.884;2023-05-01T02:09:28;99489.78;;;10.61;71.40
56721;BME280;53183;47.412;18.884;2023-05-01T02:11:58;99493.03;;;10.66;71.56
56721;BME280;53183;47.412;18.884;2023-05-01T02:14:28;99484.06;;;10.68;71.44
56721;BME280;53183;47.412;18.884;2023-05-01T02:16:56;99486.72;;;10.68;71.29
56721;BME280;53183;47.412;18.884;2023-05-01T02:19:25;99480.44;;;10.71;72.69
56721;BME280;53183;47.412;18.884;2023-05-01T02:21:55;99487.41;;;10.72;72.80
56721;BME280;53183;47.412;18.884;2023-05-01T02:24:24;99483.13;;;10.69;72.90
56721;BME280;53183;47.412;18.884;2023-05-01T02:26:56;99479.41;;;10.73;72.66
56721;BME280;53183;47.412;18.884;2023-05-01T02:29:26;99481.78;;;10.78;72.66
56721;BME280;53183;47.412;18.884;2023-05-01T02:31:54;99478.56;;;10.73;72.83
56721;BME280;53183;47.412;18.884;2023-05-01T02:34:21;99482.72;;;10.77;73.23
56721;BME280;53183;47.412;18.884;2023-05-01T02:36:48;99474.03;;;10.75;73.64
56721;BME280;53183;47.412;18.884;2023-05-01T02:39:16;99487.25;;;10.75;74.68
56721;BME280;53183;47.412;18.884;2023-05-01T02:41:47;99483.69;;;10.76;73.93
56721;BME280;53183;47.412;18.884;2023-05-01T02:44:17;99486.06;;;10.80;73.13
56721;BME280;53183;47.412;18.884;2023-05-01T02:46:46;99491.88;;;10.87;73.22
56721;BME280;53183;47.412;18.884;2023-05-01T02:49:16;99490.16;;;10.86;73.27
56721;BME280;53183;47.412;18.884;2023-05-01T02:51:45;99486.25;;;10.93;73.10
56721;BME280;53183;47.412;18.884;2023-05-01T02:54:13;99485.56;;;10.90;72.38
56721;BME280;53183;47.412;18.884;2023-05-01T02:56:42;99490.31;;;10.99;70.98
56721;BME280;53183;47.412;18.884;2023-05-01T02:59:09;99492.28;;;10.95;71.21
56721;BME280;53183;47.412;18.884;2023-05-01T03:01:36;99499.97;;;11.00;70.26
56721;BME280;53183;47.412;18.884;2023-05-01T03:04:04;99503.97;;;10.91;70.69
56721;BME280;53183;47.412;18.884;2023-05-01T03:06:32;99503.97;;;10.91;70.56
56721;BME280;53183;47.412;18.884;2023-05-01T03:08:59;99500.88;;;10.99;69.55
56721;BME280;53183;47.412;18.884;2023-05-01T03:11:27;99509.00;;;11.12;68.96
56721;BME280;53183;47.412;18.884;2023-05-01T03:13:54;99504.66;;;11.11;69.01
56721;BME280;53183;47.412;18.884;2023-05-01T03:16:21;99507.25;;;11.12;68.82
56721;BME280;53183;47.412;18.884;2023-05-01T03:18:48;99503.38;;;11.18;68.87
56721;BME280;53183;47.412;18.884;2023-05-01T03:21:16;99507.13;;;11.14;69.07
56721;BME280;53183;47.412;18.884;2023-05-01T03:23:43;99504.50;;;11.14;69.41
56721;BME280;53183;47.412;18.884;2023-05-01T03:26:10;99501.34;;;11.07;70.08
56721;BME280;53183;47.412;18.884;2023-05-01T03:28:38;99508.84;;;11.15;70.35
56721;BME280;53183;47.412;18.884;2023-05-01T03:31:05;99509.19;;;11.24;69.89
56721;BME280;53183;47.412;18.884;2023-05-01T03:33:33;99506.28;;;11.29;68.60
56721;BME280;53183;47.412;18.884;2023-05-01T03:36:01;99504.84;;;11.23;69.14
56721;BME280;53183;47.412;18.884;2023-05-01T03:38:31;99507.66;;;11.36;68.15
56721;BME280;53183;47.412;18.884;2023-05-01T03:41:02;99506.00;;;11.34;68.14
56721;BME280;53183;47.412;18.884;2023-05-01T03:43:34;99508.25;;;11.25;68.65
56721;BME280;53183;47.412;18.884;2023-05-01T03:46:03;99512.16;;;11.34;67.07
56721;BME280;53183;47.412;18.884;2023-05-01T03:48:30;99507.03;;;11.31;67.69
56721;BME280;53183;47.412;18.884;2023-05-01T03:50:57;99505.78;;;11.22;68.61
56721;BME280;53183;47.412;18.884;2023-05-01T03:53:25;99499.44;;;11.25;68.29
56721;BME280;53183;47.412;18.884;2023-05-01T03:55:52;99504.38;;;11.31;68.31
56721;BME280;53183;47.412;18.884;2023-05-01T03:58:19;99501.50;;;11.36;68.38
56721;BME280;53183;47.412;18.884;2023-05-01T04:00:48;99509.59;;;11.48;67.90
56721;BME280;53183;47.412;18.884;2023-05-01T04:03:17;99504.38;;;11.47;68.05
56721;BME280;53183;47.412;18.884;2023-05-01T04:05:45;99502.41;;;11.50;67.97
56721;BME280;53183;47.412;18.884;2023-05-01T04:08:13;99503.94;;;11.55;67.66
56721;BME280;53183;47.412;18.884;2023-05-01T04:10:40;99508.53;;;11.67;67.29
56721;BME280;53183;47.412;18.884;2023-05-01T04:13:07;99507.41;;;11.71;67.79
56721;BME280;53183;47.412;18.884;2023-05-01T04:15:35;99509.00;;;11.73;66.88
56721;BME280;53183;47.412;18.884;2023-05-01T04:18:02;99501.84;;;11.91;66.37
56721;BME280;53183;47.412;18.884;2023-05-01T04:20:30;99503.34;;;11.95;66.34
56721;BME280;53183;47.412;18.884;2023-05-01T04:22:57;99508.72;;;11.94;67.18
56721;BME280;53183;47.412;18.884;2023-05-01T04:25:25;99510.28;;;11.98;66.35
56721;BME280;53183;47.412;18.884;2023-05-01T04:27:53;99507.16;;;12.06;66.79
56721;BME280;53183;47.412;18.884;2023-05-01T04:30:20;99520.16;;;12.25;65.78
56721;BME280;53183;47.412;18.884;2023-05-01T04:32:47;99517.34;;;12.42;63.08
56721;BME280;53183;47.412;18.884;2023-05-01T04:35:15;99517.81;;;12.49;62.61
56721;BME280;53183;47.412;18.884;2023-05-01T04:37:42;99523.59;;;12.55;62.14
56721;BME280;53183;47.412;18.884;2023-05-01T04:40:10;99509.28;;;12.72;60.33
56721;BME280;53183;47.412;18.884;2023-05-01T04:42:39;99521.03;;;12.82;60.65
56721;BME280;53183;47.412;18.884;2023-05-01T04:45:08;99518.38;;;12.97;60.81
56721;BME280;53183;47.412;18.884;2023-05-01T04:47:36;99524.75;;;13.35;57.69
56721;BME280;53183;47.412;18.884;2023-05-01T04:50:04;99524.59;;;13.51;53.29
56721;BME280;53183;47.412;18.884;2023-05-01T04:52:31;99519.16;;;13.67;53.05
56721;BME280;53183;47.412;18.884;2023-05-01T04:54:59;99528.41;;;13.74;52.12
56721;BME280;53183;47.412;18.884;2023-05-01T04:57:27;99521.81;;;13.67;52.23
56721;BME280;53183;47.412;18.884;2023-05-01T04:59:54;99519.22;;;13.53;51.36
56721;BME280;53183;47.412;18.884;2023-05-01T05:02:22;99525.31;;;13.41;51.60
56721;BME280;53183;47.412;18.884;2023-05-01T05:04:50;99522.78;;;13.25;52.50
56721;BME280;53183;47.412;18.884;2023-05-01T05:07:20;99527.41;;;13.21;52.55
56721;BME280;53183;47.412;18.884;2023-05-01T05:09:50;99528.19;;;13.23;53.20
56721;BME280;53183;47.412;18.884;2023-05-01T05:12:17;99519.56;;;13.20;52.35
56721;BME280;53183;47.412;18.884;2023-05-01T05:14:45;99522.69;;;13.12;54.02
56721;BME280;53183;47.412;18.884;2023-05-01T05:17:14;99523.94;;;13.06;54.32
56721;BME280;53183;47.412;18.884;2023-05-01T05:19:42;99526.19;;;13.12;53.35
56721;BME280;53183;47.412;18.884;2023-05-01T05:22:09;99528.66;;;13.15;53.23
56721;BME280;53183;47.412;18.884;2023-05-01T05:24:41;99533.56;;;13.22;51.41
56721;BME280;53183;47.412;18.884;2023-05-01T05:27:08;99530.06;;;13.35;51.34
56721;BME280;53183;47.412;18.884;2023-05-01T05:29:35;99536.69;;;13.70;50.56
56721;BME280;53183;47.412;18.884;2023-05-01T05:32:03;99529.69;;;14.08;49.39
56721;BME280;53183;47.412;18.884;2023-05-01T05:34:31;99532.12;;;14.24;47.95
56721;BME280;53183;47.412;18.884;2023-05-01T05:36:58;99538.84;;;14.43;46.45
56721;BME280;53183;47.412;18.884;2023-05-01T05:39:26;99537.56;;;14.87;45.68
56721;BME280;53183;47.412;18.884;2023-05-01T05:41:53;99540.81;;;15.16;44.87
56721;BME280;53183;47.412;18.884;2023-05-01T05:44:21;99542.28;;;15.20;44.64
56721;BME280;53183;47.412;18.884;2023-05-01T05:46:49;99547.97;;;15.15;44.82
56721;BME280;53183;47.412;18.884;2023-05-01T05:49:18;99539.16;;;15.39;44.67
56721;BME280;53183;47.412;18.884;2023-05-01T05:51:45;99543.66;;;15.62;44.35
56721;BME280;53183;47.412;18.884;2023-05-01T05:54:13;99551.63;;;15.75;44.17
56721;BME280;53183;47.412;18.884;2023-05-01T05:56:40;99547.00;;;15.16;44.43
56721;BME280;53183;47.412;18.884;2023-05-01T05:59:08;99542.47;;;14.93;44.75
56721;BME280;53183;47.412;18.884;2023-05-01T06:01:36;99543.84;;;14.98;45.00
56721;BME280;53183;47.412;18.884;2023-05-01T06:04:04;99545.22;;;15.17;44.60
56721;BME280;53183;47.412;18.884;2023-05-01T06:06:32;99541.53;;;14.94;44.67
56721;BME280;53183;47.412;18.884;2023-05-01T06:09:55;99549.47;;;15.07;45.63
56721;BME280;53183;47.412;18.884;2023-05-01T06:12:31;99543.47;;;15.16;44.50
56721;BME280;53183;47.412;18.884;2023-05-01T06:14:59;99558.34;;;14.94;45.28
56721;BME280;53183;47.412;18.884;2023-05-01T06:17:27;99552.13;;;15.07;45.20
56721;BME280;53183;47.412;18.884;2023-05-01T06:19:55;99558.69;;;15.27;44.68
56721;BME280;53183;47.412;18.884;2023-05-01T06:22:23;99563.69;;;15.31;43.94
56721;BME280;53183;47.412;18.884;2023-05-01T06:24:50;99560.72;;;15.10;44.21
56721;BME280;53183;47.412;18.884;2023-05-01T06:27:18;99559.66;;;15.25;44.34
56721;BME280;53183;47.412;18.884;2023-05-01T06:29:45;99561.81;;;15.20;42.28
56721;BME280;53183;47.412;18.884;2023-05-01T06:32:13;99567.56;;;15.51;42.17
56721;BME280;53183;47.412;18.884;2023-05-01T06:34:40;99562.44;;;15.85;41.42
56721;BME280;53183;47.412;18.884;2023-05-01T06:37:07;99560.00;;;16.06;40.69
56721;BME280;53183;47.412;18.884;2023-05-01T06:39:34;99565.72;;;16.12;40.13
56721;BME280;53183;47.412;18.884;2023-05-01T06:42:02;99565.78;;;16.00;40.04
56721;BME280;53183;47.412;18.884;2023-05-01T06:44:30;99562.59;;;15.94;39.69
56721;BME280;53183;47.412;18.884;2023-05-01T06:47:00;99568.38;;;15.88;40.15
56721;BME280;53183;47.412;18.884;2023-05-01T06:49:28;99564.78;;;16.25;38.63
56721;BME280;53183;47.412;18.884;2023-05-01T06:51:55;99550.47;;;16.83;38.22
56721;BME280;53183;47.412;18.884;2023-05-01T06:54:22;99556.19;;;17.12;37.40
56721;BME280;53183;47.412;18.884;2023-05-01T06:56:50;99565.41;;;17.31;36.02
56721;BME280;53183;47.412;18.884;2023-05-01T06:59:17;99562.44;;;17.34;35.72
56721;BME280;53183;47.412;18.884;2023-05-01T07:01:44;99557.59;;;17.39;35.59
56721;BME280;53183;47.412;18.884;2023-05-01T07:04:11;99559.47;;;17.71;34.90
56721;BME280;53183;47.412;18.884;2023-05-01T07:06:39;99564.22;;;18.11;34.92
56721;BME280;53183;47.412;18.884;2023-05-01T07:09:06;99565.72;;;18.24;34.06
56721;BME280;53183;47.412;18.884;2023-05-01T07:11:33;99562.19;;;18.66;33.64
56721;BME280;53183;47.412;18.884;2023-05-01T07:14:01;99560.22;;;19.19;32.64
56721;BME280;53183;47.412;18.884;2023-05-01T07:16:28;99568.41;;;19.68;31.24
56721;BME280;53183;47.412;18.884;2023-05-01T07:18:56;99557.38;;;20.58;30.30
56721;BME280;53183;47.412;18.884;2023-05-01T07:21:23;99562.69;;;20.88;29.78
56721;BME280;53183;47.412;18.884;2023-05-01T07:23:50;99565.81;;;20.83;29.10
56721;BME280;53183;47.412;18.884;2023-05-01T07:26:18;99556.44;;;21.24;28.77
56721;BME280;53183;47.412;18.884;2023-05-01T07:28:45;99568.81;;;21.45;28.54
56721;BME280;53183;47.412;18.884;2023-05-01T07:31:12;99564.56;;;21.88;28.21
56721;BME280;53183;47.412;18.884;2023-05-01T07:33:40;99570.91;;;22.32;27.32
56721;BME280;53183;47.412;18.884;2023-05-01T07:36:07;99570.31;;;22.64;27.21
56721;BME280;53183;47.412;18.884;2023-05-01T07:38:35;99570.16;;;23.26;25.75
56721;BME280;53183;47.412;18.884;2023-05-01T07:41:02;99567.34;;;22.76;26.12
56721;BME280;53183;47.412;18.884;2023-05-01T07:43:29;99571.12;;;22.91;26.00
56721;BME280;53183;47.412;18.884;2023-05-01T07:45:58;99567.75;;;22.63;26.96
56721;BME280;53183;47.412;18.884;2023-05-01T07:48:27;99573.47;;;22.86;26.44
56721;BME280;53183;47.412;18.884;2023-05-01T07:50:55;99572.78;;;22.58;26.84
56721;BME280;53183;47.412;18.884;2023-05-01T07:53:23;99573.38;;;22.26;26.85
56721;BME280;53183;47.412;18.884;2023-05-01T07:55:50;99580.53;;;22.35;27.00
56721;BME280;53183;47.412;18.884;2023-05-01T07:58:17;99578.06;;;22.23;27.14
56721;BME280;53183;47.412;18.884;2023-05-01T08:00:45;99573.09;;;22.01;28.15
56721;BME280;53183;47.412;18.884;2023-05-01T08:03:12;99574.19;;;22.08;27.67
56721;BME280;53183;47.412;18.884;2023-05-01T08:05:41;99579.00;;;22.58;27.45
56721;BME280;53183;47.412;18.884;2023-05-01T08:08:08;99572.31;;;22.62;27.65
56721;BME280;53183;47.412;18.884;2023-05-01T08:10:36;99566.06;;;22.88;26.72
56721;BME280;53183;47.412;18.884;2023-05-01T08:13:03;99563.84;;;23.09;27.19
56721;BME280;53183;47.412;18.884;2023-05-01T08:15:30;99569.34;;;22.74;27.03
56721;BME280;53183;47.412;18.884;2023-05-01T08:17:57;99575.28;;;22.33;28.04
56721;BME280;53183;47.412;18.884;2023-05-01T08:20:24;99580.88;;;22.40;27.98
56721;BME280;53183;47.412;18.884;2023-05-01T08:22:51;99577.59;;;22.28;28.01
56721;BME280;53183;47.412;18.884;2023-05-01T08:25:19;99585.09;;;22.07;28.48
56721;BME280;53183;47.412;18.884;2023-05-01T08:27:46;99579.13;;;22.31;29.30
56721;BME280;53183;47.412;18.884;2023-05-01T08:30:13;99575.72;;;22.46;28.42
56721;BME280;53183;47.412;18.884;2023-05-01T08:32:41;99573.72;;;22.13;27.97
56721;BME280;53183;47.412;18.884;2023-05-01T08:35:08;99573.63;;;21.69;29.10
56721;BME280;53183;47.412;18.884;2023-05-01T08:37:35;99573.22;;;21.46;29.05
56721;BME280;53183;47.412;18.884;2023-05-01T08:40:04;99570.41;;;21.65;29.57
56721;BME280;53183;47.412;18.884;2023-05-01T08:42:35;99570.78;;;21.70;29.31
56721;BME280;53183;47.412;18.884;2023-05-01T08:45:06;99573.69;;;21.59;29.33
56721;BME280;53183;47.412;18.884;2023-05-01T08:47:36;99577.91;;;21.62;29.84
56721;BME280;53183;47.412;18.884;2023-05-01T08:50:10;99560.63;;;21.64;29.08
56721;BME280;53183;47.412;18.884;2023-05-01T08:52:40;99567.84;;;21.46;29.17
56721;BME280;53183;47.412;18.884;2023-05-01T08:55:13;99570.97;;;21.41;29.25
56721;BME280;53183;47.412;18.884;2023-05-01T08:57:45;99572.34;;;21.45;29.50
56721;BME280;53183;47.412;18.884;2023-05-01T09:00:17;99577.88;;;21.44;29.46
56721;BME280;53183;47.412;18.884;2023-05-01T09:02:48;99573.81;;;21.40;29.00
56721;BME280;53183;47.412;18.884;2023-05-01T09:05:17;99576.69;;;21.19;29.87
56721;BME280;53183;47.412;18.884;2023-05-01T09:07:46;99577.59;;;21.65;29.49
56721;BME280;53183;47.412;18.884;2023-05-01T09:10:17;99578.25;;;21.59;29.30
56721;BME280;53183;47.412;18.884;2023-05-01T09:12:48;99570.06;;;21.50;29.02
56721;BME280;53183;47.412;18.884;2023-05-01T09:15:16;99573.56;;;21.23;30.07
56721;BME280;53183;47.412;18.884;2023-05-01T09:17:44;99563.50;;;21.25;30.50
56721;BME280;53183;47.412;18.884;2023-05-01T09:20:11;99564.84;;;21.49;29.42
56721;BME280;53183;47.412;18.884;2023-05-01T09:22:39;99559.19;;;21.70;29.31
56721;BME280;53183;47.412;18.884;2023-05-01T09:25:09;99560.56;;;21.56;29.45
56721;BME280;53183;47.412;18.884;2023-05-01T09:27:37;99571.00;;;21.59;29.68
56721;BME280;53183;47.412;18.884;2023-05-01T09:30:05;99562.19;;;21.67;28.98
56721;BME280;53183;47.412;18.884;2023-05-01T09:32:33;99561.16;;;21.50;28.79
56721;BME280;53183;47.412;18.884;2023-05-01T09:35:11;99561.66;;;21.36;30.09
56721;BME280;53183;47.412;18.884;2023-05-01T09:37:39;99558.22;;;21.43;29.55
56721;BME280;53183;47.412;18.884;2023-05-01T09:40:12;99565.94;;;21.74;29.93
56721;BME280;53183;47.412;18.884;2023-05-01T09:42:51;99563.31;;;21.46;30.28
56721;BME280;53183;47.412;18.884;2023-05-01T09:45:19;99561.34;;;21.39;29.71
56721;BME280;53183;47.412;18.884;2023-05-01T09:47:47;99555.84;;;21.30;30.51
56721;BME280;53183;47.412;18.884;2023-05-01T09:50:33;99540.69;;;21.39;30.12
56721;BME280;53183;47.412;18.884;2023-05-01T09:53:03;99548.12;;;21.45;30.17
56721;BME280;53183;47.412;18.884;2023-05-01T09:55:31;99539.03;;;21.56;30.28
56721;BME280;53183;47.412;18.884;2023-05-01T09:57:59;99543.66;;;21.64;30.20
56721;BME280;53183;47.412;18.884;2023-05-01T10:00:26;99541.25;;;21.43;30.53
56721;BME280;53183;47.412;18.884;2023-05-01T10:02:54;99540.12;;;21.63;30.12
56721;BME280;53183;47.412;18.884;2023-05-01T10:05:21;99537.06;;;21.76;30.34
56721;BME280;53183;47.412;18.884;2023-05-01T10:08:00;99529.84;;;21.76;29.61
56721;BME280;53183;47.412;18.884;2023-05-01T10:10:28;99534.34;;;21.58;30.52
56721;BME280;53183;47.412;18.884;2023-05-01T10:13:15;99530.59;;;21.69;30.15
56721;BME280;53183;47.412;18.884;2023-05-01T10:15:44;99525.50;;;21.48;30.34
56721;BME280;53183;47.412;18.884;2023-05-01T10:18:13;99524.56;;;21.39;30.21
56721;BME280;53183;47.412;18.884;2023-05-01T10:20:40;99525.91;;;21.53;31.45
56721;BME280;53183;47.412;18.884;2023-05-01T10:23:08;99515.97;;;21.36;30.28
56721;BME280;53183;47.412;18.884;2023-05-01T10:25:36;99526.50;;;21.47;31.21
56721;BME280;53183;47.412;18.884;2023-05-01T10:28:04;99511.06;;;21.67;30.23
56721;BME280;53183;47.412;18.884;2023-05-01T10:30:32;99511.56;;;21.35;31.56
56721;BME280;53183;47.412;18.884;2023-05-01T10:33:01;99521.34;;;21.53;31.85
56721;BME280;53183;47.412;18.884;2023-05-01T10:35:33;99522.53;;;21.69;31.17
56721;BME280;53183;47.412;18.884;2023-05-01T10:38:06;99512.53;;;21.97;31.61
56721;BME280;53183;47.412;18.884;2023-05-01T10:45:39;99504.50;;;22.41;30.32
56721;BME280;53183;47.412;18.884;2023-05-01T10:48:06;99513.16;;;22.53;29.79
56721;BME280;53183;47.412;18.884;2023-05-01T10:50:34;99502.78;;;22.40;29.51
56721;BME280;53183;47.412;18.884;2023-05-01T10:55:43;99500.09;;;22.40;29.73
56721;BME280;53183;47.412;18.884;2023-05-01T10:58:13;99503.41;;;22.60;29.39
56721;BME280;53183;47.412;18.884;2023-05-01T11:00:43;99497.06;;;21.99;30.59
56721;BME280;53183;47.412;18.884;2023-05-01T11:08:31;99503.22;;;21.73;31.36
56721;BME280;53183;47.412;18.884;2023-05-01T11:13:55;99498.84;;;22.08;30.53
56721;BME280;53183;47.412;18.884;2023-05-01T11:19:10;99484.34;;;22.53;29.70
56721;BME280;53183;47.412;18.884;2023-05-01T11:21:38;99480.19;;;22.59;30.35
56721;BME280;53183;47.412;18.884;2023-05-01T11:24:06;99480.22;;;22.93;30.05
56721;BME280;53183;47.412;18.884;2023-05-01T11:26:41;99470.13;;;23.03;29.87
56721;BME280;53183;47.412;18.884;2023-05-01T11:29:10;99476.41;;;23.12;29.69
56721;BME280;53183;47.412;18.884;2023-05-01T11:31:38;99470.94;;;23.30;29.03
56721;BME280;53183;47.412;18.884;2023-05-01T11:34:05;99457.22;;;23.07;30.35
56721;BME280;53183;47.412;18.884;2023-05-01T11:36:47;99463.50;;;23.24;30.62
56721;BME280;53183;47.412;18.884;2023-05-01T11:39:15;99460.78;;;23.24;30.45
56721;BME280;53183;47.412;18.884;2023-05-01T11:41:46;99467.13;;;23.06;30.45
56721;BME280;53183;47.412;18.884;2023-05-01T11:44:15;99470.00;;;23.05;30.52
56721;BME280;53183;47.412;18.884;2023-05-01T11:46:43;99461.13;;;23.29;30.75
56721;BME280;53183;47.412;18.884;2023-05-01T11:49:10;99456.38;;;23.23;30.00
56721;BME280;53183;47.412;18.884;2023-05-01T11:51:38;99452.19;;;23.20;30.10
56721;BME280;53183;47.412;18.884;2023-05-01T11:54:10;99453.38;;;23.26;30.33
56721;BME280;53183;47.412;18.884;2023-05-01T11:56:41;99451.03;;;23.39;29.99
56721;BME280;53183;47.412;18.884;2023-05-01T11:59:13;99449.88;;;23.41;29.92
56721;BME280;53183;47.412;18.884;2023-05-01T12:01:45;99443.94;;;23.22;30.17
56721;BME280;53183;47.412;18.884;2023-05-01T12:04:22;99451.19;;;23.21;30.19
56721;BME280;53183;47.412;18.884;2023-05-01T12:06:50;99440.34;;;23.05;30.23
56721;BME280;53183;47.412;18.884;2023-05-01T12:09:22;99438.69;;;23.12;30.76
56721;BME280;53183;47.412;18.884;2023-05-01T12:11:51;99443.38;;;23.10;30.77
56721;BME280;53183;47.412;18.884;2023-05-01T12:14:20;99434.50;;;23.26;30.89
56721;BME280;53183;47.412;18.884;2023-05-01T12:16:47;99439.41;;;23.30;30.56
56721;BME280;53183;47.412;18.884;2023-05-01T12:19:15;99430.44;;;23.13;31.07
56721;BME280;53183;47.412;18.884;2023-05-01T12:21:44;99441.22;;;23.22;31.35
56721;BME280;53183;47.412;18.884;2023-05-01T12:24:16;99438.81;;;23.02;30.61
56721;BME280;53183;47.412;18.884;2023-05-01T12:26:44;99433.00;;;23.31;30.38
56721;BME280;53183;47.412;18.884;2023-05-01T12:29:12;99432.31;;;23.21;30.44
56721;BME280;53183;47.412;18.884;2023-05-01T12:31:47;99418.66;;;23.39;30.71
56721;BME280;53183;47.412;18.884;2023-05-01T12:34:16;99424.88;;;23.07;31.42
56721;BME280;53183;47.412;18.884;2023-05-01T12:36:52;99420.03;;;23.27;30.62
56721;BME280;53183;47.412;18.884;2023-05-01T12:39:21;99419.84;;;23.20;31.14
56721;BME280;53183;47.412;18.884;2023-05-01T12:41:50;99412.03;;;23.01;31.22
56721;BME280;53183;47.412;18.884;2023-05-01T12:44:26;99417.09;;;23.12;31.06
56721;BME280;53183;47.412;18.884;2023-05-01T12:46:58;99409.38;;;22.75;31.33
56721;BME280;53183;47.412;18.884;2023-05-01T12:49:26;99404.28;;;22.63;32.31
56721;BME280;53183;47.412;18.884;2023-05-01T12:51:56;99409.03;;;22.69;32.50
56721;BME280;53183;47.412;18.884;2023-05-01T12:54:28;99402.56;;;22.54;31.37
56721;BME280;53183;47.412;18.884;2023-05-01T12:57:14;99395.34;;;22.63;32.14
56721;BME280;53183;47.412;18.884;2023-05-01T12:59:43;99400.25;;;22.33;32.07
56721;BME280;53183;47.412;18.884;2023-05-01T13:02:13;99387.75;;;22.24;32.40
56721;BME280;53183;47.412;18.884;2023-05-01T13:04:44;99382.53;;;22.22;32.69
56721;BME280;53183;47.412;18.884;2023-05-01T13:07:17;99381.06;;;22.28;32.53
56721;BME280;53183;47.412;18.884;2023-05-01T13:09:55;99380.47;;;22.42;32.05
56721;BME280;53183;47.412;18.884;2023-05-01T13:12:27;99378.59;;;22.43;32.07
56721;BME280;53183;47.412;18.884;2023-05-01T13:14:54;99381.09;;;22.36;32.75
56721;BME280;53183;47.412;18.884;2023-05-01T13:17:27;99380.47;;;22.51;32.90
56721;BME280;53183;47.412;18.884;2023-05-01T13:19:55;99384.06;;;22.59;31.79
56721;BME280;53183;47.412;18.884;2023-05-01T13:22:41;99374.78;;;22.54;32.47
56721;BME280;53183;47.412;18.884;2023-05-01T13:25:16;99366.69;;;22.45;31.99
56721;BME280;53183;47.412;18.884;2023-05-01T13:27:52;99367.22;;;22.57;31.52
56721;BME280;53183;47.412;18.884;2023-05-01T13:30:30;99367.94;;;22.25;33.46
56721;BME280;53183;47.412;18.884;2023-05-01T13:32:58;99359.22;;;22.31;33.19
56721;BME280;53183;47.412;18.884;2023-05-01T13:35:26;99356.47;;;22.23;32.32
56721;BME280;53183;47.412;18.884;2023-05-01T13:37:54;99351.16;;;22.13;32.33